createdAt,value
2022-12-04T00:00:17.738Z,17.38
2022-12-04T00:01:07.582Z,17.17
2022-12-04T00:01:49.391Z,14.85
2022-12-04T00:02:31.334Z,15.93
2022-12-04T00:03:13.130Z,17.15
2022-12-04T00:04:00.820Z,17.45
2022-12-04T00:04:42.557Z,17.27
2022-12-04T00:05:24.397Z,17.52
2022-12-04T00:06:15.089Z,18.52
2022-12-04T00:06:58.905Z,17.58
2022-12-04T00:07:41.221Z,18.42
2022-12-04T00:08:22.988Z,17.10
2022-12-04T00:09:05.635Z,15.52
2022-12-04T00:09:47.411Z,15.73
2022-12-04T00:10:29.334Z,16.85
2022-12-04T00:11:13.247Z,17.98
2022-12-04T00:11:54.950Z,16.77
2022-12-04T00:12:36.817Z,16.38
2022-12-04T00:13:19.335Z,17.05
2022-12-04T00:14:06.906Z,16.75
2022-12-04T00:15:23.873Z,16.40
2022-12-04T00:15:52.656Z,17.42
2022-12-04T00:16:35.402Z,17.00
2022-12-04T00:17:17.228Z,17.38
2022-12-04T00:17:59.015Z,17.23
2022-12-04T00:18:41.064Z,16.40
2022-12-04T00:19:22.890Z,18.17
2022-12-04T00:20:05.276Z,17.23
2022-12-04T00:20:46.969Z,17.05
2022-12-04T00:21:28.761Z,16.00
2022-12-04T00:22:10.798Z,15.38
2022-12-04T00:22:53.041Z,18.17
2022-12-04T00:23:36.190Z,17.45
2022-12-04T00:24:17.962Z,15.63
2022-12-04T00:24:59.724Z,17.88
2022-12-04T00:25:41.684Z,16.90
2022-12-04T00:26:27.166Z,17.05
2022-12-04T00:27:09.128Z,16.20
2022-12-04T00:27:50.896Z,17.42
2022-12-04T00:28:33.709Z,16.65
2022-12-04T00:29:15.599Z,18.40
2022-12-04T00:29:57.429Z,16.73
2022-12-04T00:30:43.786Z,18.05
2022-12-04T00:31:27.751Z,16.95
2022-12-04T00:32:09.684Z,16.33
2022-12-04T00:32:51.585Z,18.10
2022-12-04T00:33:33.945Z,17.83
2022-12-04T00:34:15.655Z,19.48
2022-12-04T00:34:57.568Z,19.42
2022-12-04T00:35:39.520Z,18.75
2022-12-04T00:36:23.910Z,19.52
2022-12-04T00:37:05.668Z,17.48
2022-12-04T00:37:47.417Z,17.15
2022-12-04T00:38:29.613Z,17.42
2022-12-04T00:39:11.407Z,16.05
2022-12-04T00:39:53.595Z,17.40
2022-12-04T00:40:35.587Z,17.73
2022-12-04T00:41:20.199Z,17.17
2022-12-04T00:42:01.843Z,16.17
2022-12-04T00:42:43.636Z,15.68
2022-12-04T00:43:25.497Z,16.70
2022-12-04T00:44:07.214Z,17.35
2022-12-04T00:44:49.133Z,17.27
2022-12-04T00:45:30.920Z,17.67
2022-12-04T00:46:13.314Z,18.20
2022-12-04T00:46:55.100Z,17.38
2022-12-04T00:47:36.775Z,17.73
2022-12-04T00:48:18.707Z,18.02
2022-12-04T00:49:02.607Z,19.02
2022-12-04T00:49:44.447Z,17.10
2022-12-04T00:50:26.218Z,16.65
2022-12-04T00:51:20.892Z,18.00
2022-12-04T00:52:02.618Z,16.38
2022-12-04T00:52:44.341Z,17.70
2022-12-04T00:53:26.022Z,17.60
2022-12-04T00:54:07.760Z,17.42
2022-12-04T00:54:49.542Z,17.20
2022-12-04T00:55:31.292Z,16.80
2022-12-04T00:56:19.486Z,18.50
2022-12-04T00:57:01.244Z,17.17
2022-12-04T00:57:42.939Z,16.02
2022-12-04T00:58:24.797Z,15.27
2022-12-04T00:59:06.481Z,16.38
2022-12-04T00:59:48.297Z,15.88
2022-12-04T01:00:30.230Z,16.38
2022-12-04T01:01:18.117Z,16.75
2022-12-04T01:02:00.004Z,17.90
2022-12-04T01:02:41.818Z,16.35
2022-12-04T01:03:23.753Z,16.90
2022-12-04T01:04:05.725Z,16.48
2022-12-04T01:04:47.658Z,17.73
2022-12-04T01:05:29.505Z,17.30
2022-12-04T01:06:37.131Z,16.08
2022-12-04T01:07:18.921Z,17.13
2022-12-04T01:08:00.656Z,18.73
2022-12-04T01:08:42.439Z,16.83
2022-12-04T01:09:24.159Z,16.25
2022-12-04T01:10:08.612Z,19.38
2022-12-04T01:10:50.497Z,17.98
2022-12-04T01:11:33.285Z,15.50
2022-12-04T01:12:20.373Z,17.98
2022-12-04T01:13:02.605Z,16.92
2022-12-04T01:13:44.721Z,16.85
2022-12-04T01:14:26.433Z,19.20
2022-12-04T01:15:08.708Z,17.40
2022-12-04T01:15:50.570Z,18.02
2022-12-04T01:16:37.771Z,17.55
2022-12-04T01:17:19.512Z,17.65
2022-12-04T01:18:01.246Z,15.50
2022-12-04T01:18:42.977Z,15.88
2022-12-04T01:19:24.788Z,17.73
2022-12-04T01:20:06.886Z,14.82
2022-12-04T01:20:50.396Z,17.05
2022-12-04T01:21:32.345Z,17.67
2022-12-04T01:22:14.110Z,16.55
2022-12-04T01:22:55.903Z,17.35
2022-12-04T01:23:37.656Z,14.65
2022-12-04T01:24:19.411Z,16.73
2022-12-04T01:25:01.210Z,16.08
2022-12-04T01:25:57.143Z,16.25
2022-12-04T01:26:38.975Z,15.80
2022-12-04T01:27:20.680Z,17.98
2022-12-04T01:28:02.398Z,16.17
2022-12-04T01:28:44.248Z,17.75
2022-12-04T01:29:26.006Z,15.80
2022-12-04T01:30:08.199Z,15.60
2022-12-04T01:31:05.300Z,17.23
2022-12-04T01:31:47.116Z,15.38
2022-12-04T01:32:28.972Z,17.42
2022-12-04T01:33:10.776Z,15.75
2022-12-04T01:33:53.168Z,16.55
2022-12-04T01:34:35.965Z,17.13
2022-12-04T01:35:17.836Z,18.15
2022-12-04T01:36:01.516Z,15.45
2022-12-04T01:36:43.165Z,17.10
2022-12-04T01:37:24.876Z,15.88
2022-12-04T01:38:06.591Z,16.60
2022-12-04T01:38:48.431Z,16.40
2022-12-04T01:39:30.332Z,15.15
2022-12-04T01:40:17.151Z,14.95
2022-12-04T01:40:58.927Z,15.23
2022-12-04T01:41:40.572Z,15.88
2022-12-04T01:42:22.275Z,17.08
2022-12-04T01:43:03.905Z,18.13
2022-12-04T01:43:45.756Z,16.95
2022-12-04T01:44:29.182Z,16.33
2022-12-04T01:45:29.332Z,16.73
2022-12-04T01:46:11.880Z,15.27
2022-12-04T01:46:55.873Z,16.17
2022-12-04T01:47:37.597Z,15.82
2022-12-04T01:48:46.069Z,16.13
2022-12-04T01:49:43.986Z,17.38
2022-12-04T01:50:25.724Z,15.43
2022-12-04T01:51:27.041Z,18.45
2022-12-04T01:52:14.412Z,18.05
2022-12-04T01:52:56.152Z,18.75
2022-12-04T01:53:42.148Z,17.50
2022-12-04T01:54:32.467Z,15.90
2022-12-04T01:55:14.156Z,15.63
2022-12-04T01:55:56.514Z,17.05
2022-12-04T01:56:45.408Z,15.77
2022-12-04T01:57:31.329Z,14.95
2022-12-04T01:58:15.618Z,16.95
2022-12-04T01:59:01.649Z,15.95
2022-12-04T01:59:50.512Z,15.43
2022-12-04T02:00:32.314Z,15.23
2022-12-04T02:01:14.167Z,16.10
2022-12-04T02:02:12.018Z,16.55
2022-12-04T02:02:54.187Z,16.65
2022-12-04T02:03:37.418Z,16.45
2022-12-04T02:04:19.939Z,16.35
2022-12-04T02:05:05.011Z,16.23
2022-12-04T02:05:46.652Z,16.70
2022-12-04T02:06:28.373Z,16.63
2022-12-04T02:07:10.508Z,17.65
2022-12-04T02:07:57.589Z,17.70
2022-12-04T02:08:39.646Z,17.30
2022-12-04T02:09:26.746Z,16.33
2022-12-04T02:10:10.007Z,15.88
2022-12-04T02:10:54.491Z,16.58
2022-12-04T02:11:44.139Z,17.17
2022-12-04T02:12:53.308Z,15.38
2022-12-04T02:13:59.451Z,16.27
2022-12-04T02:15:25.734Z,16.95
2022-12-04T02:16:14.991Z,16.25
2022-12-04T02:17:05.001Z,17.00
2022-12-04T02:18:20.506Z,16.55
2022-12-04T02:19:05.033Z,17.50
2022-12-04T02:19:57.109Z,17.13
2022-12-04T02:20:41.865Z,15.40
2022-12-04T02:21:43.855Z,17.05
2022-12-04T02:22:47.983Z,16.75
2022-12-04T02:23:48.205Z,18.92
2022-12-04T02:24:55.187Z,17.50
2022-12-04T02:26:10.619Z,16.33
2022-12-04T02:27:25.473Z,16.38
2022-12-04T02:28:09.628Z,17.65
2022-12-04T02:29:15.658Z,16.25
2022-12-04T02:30:03.753Z,21.02
2022-12-04T02:30:47.385Z,17.30
2022-12-04T02:31:42.876Z,19.98
2022-12-04T02:32:24.436Z,17.10
2022-12-04T02:33:09.882Z,16.38
2022-12-04T02:34:05.604Z,16.50
2022-12-04T02:34:56.159Z,15.10
2022-12-04T02:35:44.291Z,17.08
2022-12-04T02:36:31.533Z,15.60
2022-12-04T02:37:21.677Z,16.42
2022-12-04T02:38:17.812Z,15.68
2022-12-04T02:39:09.871Z,15.27
2022-12-04T02:39:59.062Z,15.00
2022-12-04T02:40:56.956Z,17.52
2022-12-04T02:42:00.038Z,18.55
2022-12-04T02:42:57.974Z,22.73
2022-12-04T02:43:45.414Z,21.10
2022-12-04T02:44:35.174Z,18.20
2022-12-04T02:45:31.615Z,18.00
2022-12-04T02:46:16.107Z,17.80
2022-12-04T02:47:01.307Z,22.15
2022-12-04T02:47:45.603Z,17.98
2022-12-04T02:48:32.339Z,18.40
2022-12-04T02:49:28.145Z,17.77
2022-12-04T02:50:13.362Z,17.80
2022-12-04T02:50:58.294Z,18.27
2022-12-04T02:51:43.874Z,17.95
2022-12-04T02:52:33.696Z,16.75
2022-12-04T02:53:20.692Z,18.20
2022-12-04T02:54:09.488Z,20.48
2022-12-04T02:54:57.520Z,16.52
2022-12-04T02:55:43.935Z,16.35
2022-12-04T02:56:30.383Z,14.77
2022-12-04T02:57:18.256Z,15.98
2022-12-04T02:58:05.995Z,17.60
2022-12-04T02:58:53.311Z,17.85
2022-12-04T02:59:39.321Z,16.83
2022-12-04T03:00:22.203Z,16.67
2022-12-04T03:01:19.572Z,15.93
2022-12-04T03:02:09.537Z,16.50
2022-12-04T03:03:08.782Z,16.73
2022-12-04T03:04:09.279Z,18.00
2022-12-04T03:04:53.425Z,16.98
2022-12-04T03:05:53.567Z,15.50
2022-12-04T03:06:39.280Z,16.58
2022-12-04T03:07:29.425Z,16.23
2022-12-04T03:08:17.083Z,15.90
2022-12-04T03:09:06.292Z,15.63
2022-12-04T03:09:53.608Z,14.32
2022-12-04T03:10:41.517Z,16.70
2022-12-04T03:11:26.428Z,16.42
2022-12-04T03:12:18.153Z,18.33
2022-12-04T03:13:06.507Z,14.93
2022-12-04T03:13:55.486Z,15.05
2022-12-04T03:14:43.199Z,14.45
2022-12-04T03:15:37.399Z,16.35
2022-12-04T03:16:24.296Z,15.93
2022-12-04T03:17:11.980Z,16.83
2022-12-04T03:18:09.272Z,15.57
2022-12-04T03:19:09.124Z,16.02
2022-12-04T03:19:56.886Z,17.40
2022-12-04T03:20:39.720Z,15.98
2022-12-04T03:21:26.675Z,14.98
2022-12-04T03:22:13.449Z,16.80
2022-12-04T03:23:03.285Z,17.58
2022-12-04T03:23:50.828Z,17.88
2022-12-04T03:24:48.078Z,17.02
2022-12-04T03:25:36.878Z,17.40
2022-12-04T03:26:37.029Z,16.08
2022-12-04T03:27:45.965Z,16.40
2022-12-04T03:28:38.743Z,15.15
2022-12-04T03:29:29.500Z,16.27
2022-12-04T03:30:14.247Z,16.60
2022-12-04T03:31:03.629Z,14.50
2022-12-04T03:31:57.719Z,17.98
2022-12-04T03:32:55.193Z,17.10
2022-12-04T03:33:48.412Z,15.95
2022-12-04T03:34:42.453Z,14.88
2022-12-04T03:35:29.936Z,16.15
2022-12-04T03:36:21.962Z,15.30
2022-12-04T03:37:10.669Z,16.33
2022-12-04T03:38:04.848Z,15.38
2022-12-04T03:39:11.696Z,17.27
2022-12-04T03:40:06.417Z,20.30
2022-12-04T03:41:04.235Z,17.60
2022-12-04T03:42:01.667Z,15.45
2022-12-04T03:42:54.419Z,16.48
2022-12-04T03:43:53.835Z,15.80
2022-12-04T03:44:35.420Z,15.57
2022-12-04T03:45:23.545Z,16.73
2022-12-04T03:46:11.365Z,14.70
2022-12-04T03:47:00.999Z,14.30
2022-12-04T03:47:51.600Z,16.10
2022-12-04T03:48:42.505Z,15.75
2022-12-04T03:49:45.785Z,14.48
2022-12-04T03:50:37.183Z,14.82
2022-12-04T03:51:24.786Z,15.88
2022-12-04T03:52:24.562Z,14.82
2022-12-04T03:53:25.431Z,14.70
2022-12-04T03:54:21.861Z,14.52
2022-12-04T03:55:32.243Z,13.43
2022-12-04T03:56:19.064Z,13.88
2022-12-04T03:57:06.460Z,14.90
2022-12-04T03:57:51.014Z,13.88
2022-12-04T03:58:35.813Z,14.73
2022-12-04T03:59:26.936Z,13.55
2022-12-04T04:00:14.219Z,15.25
2022-12-04T04:00:58.186Z,13.88
2022-12-04T04:01:44.837Z,14.93
2022-12-04T04:02:33.054Z,14.30
2022-12-04T04:03:36.919Z,15.00
2022-12-04T04:04:24.748Z,17.05
2022-12-04T04:05:09.968Z,16.30
2022-12-04T04:05:55.945Z,16.30
2022-12-04T04:06:42.227Z,13.40
2022-12-04T04:07:35.737Z,13.93
2022-12-04T04:08:26.694Z,15.10
2022-12-04T04:09:19.423Z,16.52
2022-12-04T04:10:11.292Z,14.30
2022-12-04T04:11:19.490Z,14.45
2022-12-04T04:12:11.783Z,14.00
2022-12-04T04:13:20.700Z,15.10
2022-12-04T04:14:37.391Z,14.85
2022-12-04T04:15:38.355Z,16.05
2022-12-04T04:16:43.491Z,14.05
2022-12-04T04:17:47.755Z,14.80
2022-12-04T04:18:50.504Z,13.07
2022-12-04T04:19:53.881Z,16.08
2022-12-04T04:21:06.263Z,14.73
2022-12-04T04:22:09.681Z,13.73
2022-12-04T04:23:13.398Z,16.00
2022-12-04T04:24:13.838Z,17.42
2022-12-04T04:25:02.504Z,15.18
2022-12-04T04:25:45.504Z,17.20
2022-12-04T04:26:32.679Z,14.38
2022-12-04T04:27:14.543Z,15.82
2022-12-04T04:27:58.692Z,14.93
2022-12-04T04:28:42.101Z,13.75
2022-12-04T04:29:23.853Z,13.30
2022-12-04T04:30:07.623Z,13.07
2022-12-04T04:30:49.307Z,13.93
2022-12-04T04:31:40.955Z,13.40
2022-12-04T04:32:31.047Z,13.85
2022-12-04T04:33:16.827Z,12.73
2022-12-04T04:34:10.272Z,14.75
2022-12-04T04:35:05.134Z,12.63
2022-12-04T04:35:57.726Z,13.88
2022-12-04T04:37:04.107Z,13.82
2022-12-04T04:37:57.380Z,14.10
2022-12-04T04:39:08.134Z,14.98
2022-12-04T04:39:49.769Z,14.25
2022-12-04T04:40:39.642Z,14.20
2022-12-04T04:41:32.984Z,14.15
2022-12-04T04:42:35.501Z,13.77
2022-12-04T04:43:32.071Z,14.63
2022-12-04T04:44:34.985Z,13.45
2022-12-04T04:45:32.091Z,13.20
2022-12-04T04:46:31.969Z,15.68
2022-12-04T04:47:23.763Z,14.70
2022-12-04T04:48:14.769Z,13.45
2022-12-04T04:49:00.514Z,14.52
2022-12-04T04:49:43.301Z,15.32
2022-12-04T04:50:25.645Z,12.85
2022-12-04T04:51:07.897Z,14.18
2022-12-04T04:51:49.745Z,14.10
2022-12-04T04:52:32.896Z,14.13
2022-12-04T04:53:22.303Z,13.48
2022-12-04T04:54:08.493Z,12.52
2022-12-04T04:54:50.130Z,12.93
2022-12-04T04:55:34.548Z,12.90
2022-12-04T04:56:16.517Z,13.30
2022-12-04T04:56:58.255Z,14.18
2022-12-04T04:57:39.968Z,13.85
2022-12-04T04:58:21.748Z,13.02
2022-12-04T04:59:03.367Z,12.95
2022-12-04T04:59:44.995Z,14.77
2022-12-04T05:00:26.695Z,13.18
2022-12-04T05:01:15.011Z,15.77
2022-12-04T05:01:56.919Z,12.98
2022-12-04T05:02:38.808Z,13.38
2022-12-04T05:03:20.569Z,11.98
2022-12-04T05:04:04.911Z,15.70
2022-12-04T05:04:46.584Z,14.77
2022-12-04T05:05:28.206Z,13.18
2022-12-04T05:06:10.070Z,11.98
2022-12-04T05:06:51.739Z,12.57
2022-12-04T05:07:33.616Z,13.07
2022-12-04T05:08:15.398Z,12.95
2022-12-04T05:08:57.151Z,13.02
2022-12-04T05:09:41.384Z,12.77
2022-12-04T05:10:23.547Z,15.13
2022-12-04T05:11:06.006Z,12.23
2022-12-04T05:11:47.602Z,12.32
2022-12-04T05:12:29.275Z,13.32
2022-12-04T05:13:14.181Z,11.90
2022-12-04T05:13:55.786Z,12.43
2022-12-04T05:14:37.423Z,13.10
2022-12-04T05:15:19.084Z,14.13
2022-12-04T05:16:03.795Z,12.50
2022-12-04T05:16:45.773Z,13.32
2022-12-04T05:17:27.445Z,13.02
2022-12-04T05:18:09.961Z,12.20
2022-12-04T05:19:10.395Z,12.27
2022-12-04T05:19:55.689Z,15.05
2022-12-04T05:20:40.595Z,12.85
2022-12-04T05:21:22.232Z,13.73
2022-12-04T05:22:03.911Z,12.90
2022-12-04T05:22:45.560Z,13.38
2022-12-04T05:23:27.240Z,12.90
2022-12-04T05:24:09.737Z,12.50
2022-12-04T05:24:51.525Z,12.32
2022-12-04T05:25:33.433Z,11.07
2022-12-04T05:26:15.059Z,12.30
2022-12-04T05:26:56.700Z,12.18
2022-12-04T05:27:38.552Z,11.98
2022-12-04T05:28:20.246Z,12.30
2022-12-04T05:29:01.899Z,12.13
2022-12-04T05:29:43.508Z,12.45
2022-12-04T05:30:25.179Z,11.70
2022-12-04T05:31:06.828Z,12.70
2022-12-04T05:31:48.527Z,12.63
2022-12-04T05:32:30.597Z,11.93
2022-12-04T05:33:12.344Z,11.73
2022-12-04T05:33:54.010Z,11.90
2022-12-04T05:34:35.876Z,10.70
2022-12-04T05:35:17.592Z,11.55
2022-12-04T05:36:05.223Z,14.32
2022-12-04T05:36:46.886Z,12.75
2022-12-04T05:37:28.672Z,11.50
2022-12-04T05:38:10.380Z,12.02
2022-12-04T05:38:52.072Z,11.77
2022-12-04T05:39:34.416Z,12.30
2022-12-04T05:40:16.342Z,12.23
2022-12-04T05:40:59.566Z,12.23
2022-12-04T05:41:41.201Z,12.40
2022-12-04T05:42:22.856Z,12.65
2022-12-04T05:43:04.518Z,10.77
2022-12-04T05:43:46.196Z,11.32
2022-12-04T05:44:27.905Z,11.80
2022-12-04T05:45:10.148Z,11.38
2022-12-04T05:45:51.995Z,11.98
2022-12-04T05:46:33.740Z,11.52
2022-12-04T05:47:16.745Z,11.23
2022-12-04T05:47:58.382Z,12.43
2022-12-04T05:48:40.078Z,10.55
2022-12-04T05:49:21.791Z,12.35
2022-12-04T05:50:03.733Z,11.50
2022-12-04T05:50:45.465Z,13.05
2022-12-04T05:51:27.225Z,12.23
2022-12-04T05:52:10.548Z,11.63
2022-12-04T05:52:52.263Z,13.50
2022-12-04T05:53:33.977Z,12.05
2022-12-04T05:54:15.658Z,12.00
2022-12-04T05:54:57.394Z,12.70
2022-12-04T05:55:39.078Z,11.85
2022-12-04T05:56:20.785Z,10.95
2022-12-04T05:57:02.601Z,11.70
2022-12-04T05:57:44.249Z,12.48
2022-12-04T05:58:26.335Z,11.57
2022-12-04T05:59:08.033Z,12.00
2022-12-04T05:59:50.921Z,12.52
2022-12-04T06:00:32.693Z,12.57
2022-12-04T06:01:20.074Z,13.15
2022-12-04T06:02:01.817Z,11.75
2022-12-04T06:02:43.579Z,11.70
2022-12-04T06:03:25.336Z,12.95
2022-12-04T06:04:07.563Z,14.15
2022-12-04T06:04:49.303Z,13.85
2022-12-04T06:05:32.582Z,12.32
2022-12-04T06:06:22.130Z,13.07
2022-12-04T06:07:04.375Z,12.88
2022-12-04T06:07:46.272Z,11.25
2022-12-04T06:08:27.965Z,12.60
2022-12-04T06:09:09.736Z,12.05
2022-12-04T06:09:51.480Z,12.20
2022-12-04T06:10:33.101Z,11.57
2022-12-04T06:11:17.795Z,12.88
2022-12-04T06:11:59.614Z,11.98
2022-12-04T06:12:41.259Z,10.52
2022-12-04T06:13:23.007Z,12.77
2022-12-04T06:14:07.083Z,12.05
2022-12-04T06:14:48.805Z,11.57
2022-12-04T06:15:30.476Z,12.88
2022-12-04T06:16:17.960Z,12.85
2022-12-04T06:16:59.621Z,11.85
2022-12-04T06:17:41.261Z,11.18
2022-12-04T06:18:22.853Z,12.52
2022-12-04T06:19:10.140Z,11.73
2022-12-04T06:19:53.627Z,11.20
2022-12-04T06:20:35.579Z,12.57
2022-12-04T06:21:18.546Z,11.48
2022-12-04T06:22:00.209Z,12.25
2022-12-04T06:22:41.907Z,12.07
2022-12-04T06:23:23.956Z,12.55
2022-12-04T06:24:06.741Z,13.48
2022-12-04T06:24:48.699Z,13.52
2022-12-04T06:25:30.447Z,11.93
2022-12-04T06:26:12.888Z,12.32
2022-12-04T06:28:00.695Z,12.82
2022-12-04T06:28:42.508Z,11.90
2022-12-04T06:29:24.112Z,9.88
2022-12-04T06:30:06.316Z,12.52
2022-12-04T06:30:48.008Z,11.75
2022-12-04T06:31:30.495Z,11.48
2022-12-04T06:32:16.347Z,11.02
2022-12-04T06:33:01.307Z,11.43
2022-12-04T06:33:43.238Z,11.20
2022-12-04T06:34:24.950Z,11.95
2022-12-04T06:35:07.051Z,11.65
2022-12-04T06:35:58.052Z,12.13
2022-12-04T06:36:39.867Z,11.73
2022-12-04T06:37:24.135Z,11.57
2022-12-04T06:38:06.397Z,12.18
2022-12-04T06:38:49.086Z,10.75
2022-12-04T06:39:30.784Z,12.00
2022-12-04T06:40:12.714Z,11.75
2022-12-04T06:40:54.429Z,12.65
2022-12-04T06:41:36.126Z,11.37
2022-12-04T06:42:17.786Z,11.95
2022-12-04T06:42:59.483Z,11.75
2022-12-04T06:43:41.837Z,11.02
2022-12-04T06:44:23.535Z,11.13
2022-12-04T06:45:06.485Z,11.60
2022-12-04T06:45:48.487Z,11.80
2022-12-04T06:46:32.901Z,10.85
2022-12-04T06:47:14.605Z,10.55
2022-12-04T06:47:56.250Z,11.00
2022-12-04T06:48:38.650Z,11.02
2022-12-04T06:49:22.828Z,9.23
2022-12-04T06:50:05.111Z,11.13
2022-12-04T06:50:46.756Z,10.45
2022-12-04T06:51:34.219Z,10.60
2022-12-04T06:52:15.884Z,10.65
2022-12-04T06:52:57.550Z,12.35
2022-12-04T06:53:39.694Z,10.10
2022-12-04T06:57:07.078Z,11.25
2022-12-04T06:57:48.727Z,11.80
2022-12-04T06:58:30.749Z,10.55
2022-12-04T06:59:12.450Z,11.50
2022-12-04T06:59:54.463Z,9.57
2022-12-04T07:00:36.440Z,10.65
2022-12-04T07:01:20.563Z,10.43
2022-12-04T07:02:02.292Z,10.77
2022-12-04T07:02:44.037Z,10.73
2022-12-04T07:03:26.837Z,10.20
2022-12-04T07:04:08.778Z,11.70
2022-12-04T07:04:55.391Z,10.57
2022-12-04T07:05:37.063Z,11.65
2022-12-04T07:06:27.689Z,10.68
2022-12-04T07:07:09.992Z,12.50
2022-12-04T07:07:51.741Z,10.38
2022-12-04T07:08:33.405Z,9.93
2022-12-04T07:09:17.420Z,11.20
2022-12-04T07:09:59.181Z,9.13
2022-12-04T07:10:41.352Z,10.77
2022-12-04T07:11:23.523Z,10.60
2022-12-04T07:12:05.743Z,10.73
2022-12-04T07:12:47.496Z,10.82
2022-12-04T07:13:29.260Z,10.60
2022-12-04T07:14:12.094Z,11.10
2022-12-04T07:14:53.702Z,13.73
2022-12-04T07:15:37.266Z,13.00
2022-12-04T07:16:21.586Z,12.32
2022-12-04T07:17:03.502Z,12.95
2022-12-04T07:17:45.313Z,11.57
2022-12-04T07:18:28.010Z,11.30
2022-12-04T07:19:11.766Z,10.65
2022-12-04T07:19:53.836Z,9.98
2022-12-04T07:20:40.540Z,12.68
2022-12-04T07:21:24.946Z,11.25
2022-12-04T07:22:08.769Z,11.90
2022-12-04T07:22:50.518Z,9.27
2022-12-04T07:23:32.223Z,10.27
2022-12-04T07:24:17.107Z,10.70
2022-12-04T07:24:58.788Z,10.20
2022-12-04T07:25:40.700Z,10.98
2022-12-04T07:26:23.347Z,10.05
2022-12-04T07:27:05.062Z,11.85
2022-12-04T07:27:46.840Z,12.43
2022-12-04T07:28:28.477Z,17.08
2022-12-04T07:29:10.712Z,15.35
2022-12-04T07:29:53.205Z,15.68
2022-12-04T07:30:38.098Z,12.98
2022-12-04T07:31:21.699Z,13.20
2022-12-04T07:32:03.787Z,12.50
2022-12-04T07:32:45.516Z,12.52
2022-12-04T07:33:27.234Z,15.27
2022-12-04T07:34:08.920Z,13.63
2022-12-04T07:34:51.090Z,14.50
2022-12-04T07:35:33.312Z,12.40
2022-12-04T07:36:19.290Z,15.93
2022-12-04T07:37:00.892Z,13.32
2022-12-04T07:37:42.577Z,12.02
2022-12-04T07:38:25.218Z,13.55
2022-12-04T07:39:06.943Z,11.85
2022-12-04T07:39:52.067Z,12.48
2022-12-04T07:40:33.745Z,12.13
2022-12-04T07:41:16.037Z,13.02
2022-12-04T07:41:57.663Z,12.43
2022-12-04T07:42:39.327Z,12.05
2022-12-04T07:43:20.997Z,11.35
2022-12-04T07:44:02.804Z,11.20
2022-12-04T07:44:44.655Z,10.57
2022-12-04T07:45:26.347Z,10.20
2022-12-04T07:46:14.392Z,10.05
2022-12-04T07:46:56.074Z,10.25
2022-12-04T07:47:37.836Z,10.25
2022-12-04T07:48:19.577Z,10.27
2022-12-04T07:49:01.333Z,12.43
2022-12-04T07:49:43.068Z,11.70
2022-12-04T07:50:24.897Z,10.10
2022-12-04T07:51:14.927Z,10.30
2022-12-04T07:51:56.579Z,10.68
2022-12-04T07:52:39.744Z,10.45
2022-12-04T07:53:21.444Z,10.45
2022-12-04T07:54:04.449Z,10.32
2022-12-04T07:54:46.646Z,9.98
2022-12-04T07:55:28.328Z,9.25
2022-12-04T07:56:11.285Z,10.20
2022-12-04T07:56:52.933Z,12.30
2022-12-04T07:57:34.696Z,13.30
2022-12-04T07:58:16.345Z,12.00
2022-12-04T07:58:59.405Z,9.95
2022-12-04T07:59:41.159Z,10.27
2022-12-04T08:00:22.936Z,9.45
2022-12-04T08:01:13.408Z,10.35
2022-12-04T08:01:55.246Z,11.52
2022-12-04T08:02:37.097Z,12.27
2022-12-04T08:03:18.768Z,12.57
2022-12-04T08:04:01.380Z,10.27
2022-12-04T08:04:43.151Z,10.80
2022-12-04T08:05:24.962Z,11.10
2022-12-04T08:06:07.311Z,10.35
2022-12-04T08:06:49.027Z,10.35
2022-12-04T08:07:31.688Z,10.18
2022-12-04T08:08:13.471Z,10.43
2022-12-04T08:08:55.239Z,9.77
2022-12-04T08:09:36.910Z,11.07
2022-12-04T08:10:18.749Z,11.40
2022-12-04T08:11:00.835Z,11.60
2022-12-04T08:11:42.675Z,11.43
2022-12-04T08:12:24.715Z,11.70
2022-12-04T08:13:07.255Z,11.63
2022-12-04T08:13:54.556Z,12.00
2022-12-04T08:14:36.316Z,11.82
2022-12-04T08:15:18.179Z,11.57
2022-12-04T08:16:04.303Z,11.75
2022-12-04T08:16:52.704Z,10.20
2022-12-04T08:17:34.822Z,10.60
2022-12-04T08:18:16.957Z,11.32
2022-12-04T08:19:00.043Z,10.50
2022-12-04T08:19:41.849Z,11.40
2022-12-04T08:20:23.508Z,11.45
2022-12-04T08:21:05.210Z,9.65
2022-12-04T08:21:46.971Z,9.32
2022-12-04T08:22:28.633Z,10.98
2022-12-04T08:23:10.360Z,10.27
2022-12-04T08:23:54.351Z,11.20
2022-12-04T08:24:36.126Z,10.38
2022-12-04T08:25:18.207Z,11.23
2022-12-04T08:26:00.992Z,11.32
2022-12-04T08:26:42.703Z,11.75
2022-12-04T08:27:24.456Z,12.05
2022-12-04T08:28:06.245Z,10.20
2022-12-04T08:28:48.539Z,11.63
2022-12-04T08:29:35.338Z,11.20
2022-12-04T08:30:17.317Z,11.90
2022-12-04T08:31:07.339Z,10.15
2022-12-04T08:31:49.089Z,9.80
2022-12-04T08:32:30.769Z,10.13
2022-12-04T08:33:12.465Z,9.85
2022-12-04T08:33:56.915Z,12.70
2022-12-04T08:34:38.619Z,11.02
2022-12-04T08:35:20.370Z,13.35
2022-12-04T08:36:05.485Z,14.60
2022-12-04T08:36:47.191Z,19.48
2022-12-04T08:37:28.944Z,16.20
2022-12-04T08:38:10.655Z,16.92
2022-12-04T08:38:52.476Z,14.52
2022-12-04T08:39:34.263Z,14.52
2022-12-04T08:40:16.132Z,14.85
2022-12-04T08:41:01.948Z,13.48
2022-12-04T08:41:43.639Z,12.40
2022-12-04T08:42:25.418Z,13.77
2022-12-04T08:43:07.191Z,12.85
2022-12-04T08:43:50.129Z,16.50
2022-12-04T08:44:31.895Z,20.90
2022-12-04T08:45:13.578Z,16.67
2022-12-04T08:45:59.676Z,14.40
2022-12-04T08:46:41.594Z,20.77
2022-12-04T08:47:23.609Z,17.67
2022-12-04T08:48:05.683Z,16.38
2022-12-04T08:48:47.483Z,15.20
2022-12-04T08:49:29.293Z,14.13
2022-12-04T08:50:11.161Z,12.25
2022-12-04T08:50:53.337Z,10.60
2022-12-04T08:51:35.876Z,10.93
2022-12-04T08:52:17.613Z,9.95
2022-12-04T08:52:59.378Z,11.02
2022-12-04T08:53:41.971Z,8.98
2022-12-04T08:54:23.742Z,9.55
2022-12-04T08:55:05.966Z,10.15
2022-12-04T08:55:48.244Z,10.43
2022-12-04T08:56:31.261Z,9.38
2022-12-04T08:57:12.954Z,11.40
2022-12-04T08:57:54.981Z,10.10
2022-12-04T08:58:36.922Z,10.45
2022-12-04T08:59:18.994Z,10.25
2022-12-04T09:00:00.727Z,10.07
2022-12-04T09:00:43.121Z,10.60
2022-12-04T09:01:26.218Z,10.48
2022-12-04T09:02:10.983Z,10.43
2022-12-04T09:02:52.788Z,10.82
2022-12-04T09:03:35.143Z,10.55
2022-12-04T09:04:16.953Z,10.13
2022-12-04T09:04:58.865Z,12.00
2022-12-04T09:05:41.539Z,12.75
2022-12-04T09:06:24.238Z,12.43
2022-12-04T09:07:06.058Z,11.77
2022-12-04T09:07:47.737Z,12.60
2022-12-04T09:08:29.488Z,13.52
2022-12-04T09:09:12.371Z,11.80
2022-12-04T09:09:54.013Z,12.13
2022-12-04T09:10:36.584Z,12.13
2022-12-04T09:11:20.463Z,8.73
2022-12-04T09:12:02.189Z,12.23
2022-12-04T09:12:43.992Z,10.20
2022-12-04T09:13:25.700Z,12.43
2022-12-04T09:14:07.607Z,11.35
2022-12-04T09:14:49.517Z,11.10
2022-12-04T09:15:32.110Z,11.95
2022-12-04T09:16:20.872Z,13.20
2022-12-04T09:17:02.707Z,10.52
2022-12-04T09:17:44.598Z,9.57
2022-12-04T09:18:26.404Z,11.52
2022-12-04T09:19:08.214Z,10.23
2022-12-04T09:19:50.177Z,13.32
2022-12-04T09:20:32.072Z,11.90
2022-12-04T09:21:15.966Z,10.90
2022-12-04T09:21:57.777Z,9.95
2022-12-04T09:23:02.066Z,10.13
2022-12-04T09:23:41.992Z,9.50
2022-12-04T09:24:23.786Z,12.50
2022-12-04T09:25:06.359Z,10.82
2022-12-04T09:25:48.265Z,11.57
2022-12-04T09:26:32.891Z,11.02
2022-12-04T09:27:15.181Z,10.40
2022-12-04T09:27:57.007Z,12.57
2022-12-04T09:28:38.700Z,12.30
2022-12-04T09:29:20.395Z,11.95
2022-12-04T09:30:02.209Z,13.10
2022-12-04T09:30:43.971Z,11.60
2022-12-04T09:31:26.493Z,11.82
2022-12-04T09:32:08.578Z,10.82
2022-12-04T09:32:50.398Z,10.55
2022-12-04T09:33:33.348Z,12.48
2022-12-04T09:34:15.089Z,13.00
2022-12-04T09:34:56.773Z,11.95
2022-12-04T09:35:39.207Z,11.15
2022-12-04T09:36:21.729Z,11.13
2022-12-04T09:37:03.466Z,11.35
2022-12-04T09:37:45.196Z,11.55
2022-12-04T09:38:27.843Z,13.40
2022-12-04T09:39:10.287Z,12.77
2022-12-04T09:39:52.205Z,11.73
2022-12-04T09:40:45.064Z,10.40
2022-12-04T09:41:51.476Z,12.95
2022-12-04T09:42:45.880Z,14.15
2022-12-04T09:43:33.344Z,11.48
2022-12-04T09:44:27.979Z,11.27
2022-12-04T09:45:20.814Z,12.30
2022-12-04T09:46:12.189Z,12.57
2022-12-04T09:47:21.260Z,12.57
2022-12-04T09:48:03.231Z,10.98
2022-12-04T09:48:48.604Z,10.80
2022-12-04T09:49:43.217Z,11.00